sensor_id;sensor_type;location;lat;lon;timestamp;pressure;altitude;pressure_sealevel;temperature;humidity
75646;BME280;64237;52.438;13.240;2023-04-06T00:00:09;101683.13;;;2.54;75.97
75646;BME280;64237;52.438;13.240;2023-04-06T00:02:35;101684.13;;;2.37;76.21
75646;BME280;64237;52.438;13.240;2023-04-06T00:05:00;101680.66;;;2.27;76.31
75646;BME280;64237;52.438;13.240;2023-04-06T00:07:26;101680.84;;;2.25;75.41
75646;BME280;64237;52.438;13.240;2023-04-06T00:09:53;101678.28;;;2.24;75.54
75646;BME280;64237;52.438;13.240;2023-04-06T00:12:18;101680.31;;;2.14;76.49
75646;BME280;64237;52.438;13.240;2023-04-06T00:14:43;101684.03;;;2.13;76.32
75646;BME280;64237;52.438;13.240;2023-04-06T00:17:09;101678.91;;;2.10;76.55
75646;BME280;64237;52.438;13.240;2023-04-06T00:19:35;101674.91;;;1.96;76.02
75646;BME280;64237;52.438;13.240;2023-04-06T00:22:00;101670.31;;;1.96;75.80
75646;BME280;64237;52.438;13.240;2023-04-06T00:24:27;101667.91;;;1.85;76.39
75646;BME280;64237;52.438;13.240;2023-04-06T00:26:52;101666.03;;;1.86;76.43
75646;BME280;64237;52.438;13.240;2023-04-06T00:29:18;101663.06;;;1.71;76.42
75646;BME280;64237;52.438;13.240;2023-04-06T00:31:43;101671.38;;;1.61;77.50
75646;BME280;64237;52.438;13.240;2023-04-06T00:34:09;101664.84;;;1.88;77.68
75646;BME280;64237;52.438;13.240;2023-04-06T00:36:35;101663.78;;;1.81;77.27
75646;BME280;64237;52.438;13.240;2023-04-06T00:39:00;101668.59;;;1.95;76.75
75646;BME280;64237;52.438;13.240;2023-04-06T00:41:26;101669.72;;;1.77;77.07
75646;BME280;64237;52.438;13.240;2023-04-06T00:43:51;101667.38;;;1.82;75.97
75646;BME280;64237;52.438;13.240;2023-04-06T00:46:16;101669.50;;;1.62;77.18
75646;BME280;64237;52.438;13.240;2023-04-06T00:48:42;101673.84;;;1.47;77.34
75646;BME280;64237;52.438;13.240;2023-04-06T00:51:07;101665.59;;;1.38;77.45
75646;BME280;64237;52.438;13.240;2023-04-06T00:53:33;101657.38;;;1.30;77.81
75646;BME280;64237;52.438;13.240;2023-04-06T00:55:58;101653.53;;;1.15;78.61
75646;BME280;64237;52.438;13.240;2023-04-06T00:58:24;101658.06;;;1.07;79.02
75646;BME280;64237;52.438;13.240;2023-04-06T01:00:49;101655.44;;;0.97;79.19
75646;BME280;64237;52.438;13.240;2023-04-06T01:03:15;101665.63;;;0.95;79.32
75646;BME280;64237;52.438;13.240;2023-04-06T01:05:41;101655.13;;;1.00;79.19
75646;BME280;64237;52.438;13.240;2023-04-06T01:08:07;101660.09;;;0.87;79.24
75646;BME280;64237;52.438;13.240;2023-04-06T01:10:33;101667.22;;;0.80;79.73
75646;BME280;64237;52.438;13.240;2023-04-06T01:12:58;101663.63;;;0.79;80.17
75646;BME280;64237;52.438;13.240;2023-04-06T01:15:24;101662.66;;;0.88;79.90
75646;BME280;64237;52.438;13.240;2023-04-06T01:17:49;101660.50;;;0.92;79.65
75646;BME280;64237;52.438;13.240;2023-04-06T01:20:15;101657.16;;;0.98;79.79
75646;BME280;64237;52.438;13.240;2023-04-06T01:22:40;101657.25;;;1.14;78.57
75646;BME280;64237;52.438;13.240;2023-04-06T01:25:06;101659.47;;;0.93;79.06
75646;BME280;64237;52.438;13.240;2023-04-06T01:27:32;101657.38;;;1.05;79.16
75646;BME280;64237;52.438;13.240;2023-04-06T01:29:57;101664.94;;;0.93;79.08
75646;BME280;64237;52.438;13.240;2023-04-06T01:32:23;101653.06;;;0.76;79.28
75646;BME280;64237;52.438;13.240;2023-04-06T01:34:48;101656.84;;;0.65;79.68
75646;BME280;64237;52.438;13.240;2023-04-06T01:37:14;101653.53;;;0.54;79.79
75646;BME280;64237;52.438;13.240;2023-04-06T01:39:40;101661.59;;;0.46;80.37
75646;BME280;64237;52.438;13.240;2023-04-06T01:42:06;101659.38;;;0.41;81.31
75646;BME280;64237;52.438;13.240;2023-04-06T01:44:31;101668.63;;;0.48;80.57
75646;BME280;64237;52.438;13.240;2023-04-06T01:46:57;101663.97;;;0.41;80.97
75646;BME280;64237;52.438;13.240;2023-04-06T01:49:22;101659.69;;;0.38;80.98
75646;BME280;64237;52.438;13.240;2023-04-06T01:51:47;101654.00;;;0.31;81.48
75646;BME280;64237;52.438;13.240;2023-04-06T01:54:13;101652.28;;;0.30;82.07
75646;BME280;64237;52.438;13.240;2023-04-06T01:56:38;101649.09;;;0.35;81.31
75646;BME280;64237;52.438;13.240;2023-04-06T01:59:04;101653.44;;;0.28;81.71
75646;BME280;64237;52.438;13.240;2023-04-06T02:01:29;101646.59;;;0.24;81.46
75646;BME280;64237;52.438;13.240;2023-04-06T02:03:54;101636.66;;;0.15;82.09
75646;BME280;64237;52.438;13.240;2023-04-06T02:06:20;101651.97;;;0.16;82.02
75646;BME280;64237;52.438;13.240;2023-04-06T02:08:45;101648.31;;;0.25;81.24
75646;BME280;64237;52.438;13.240;2023-04-06T02:11:11;101646.59;;;0.24;81.69
75646;BME280;64237;52.438;13.240;2023-04-06T02:13:36;101643.81;;;0.16;81.89
75646;BME280;64237;52.438;13.240;2023-04-06T02:16:01;101647.22;;;0.18;82.28
75646;BME280;64237;52.438;13.240;2023-04-06T02:18:29;101647.97;;;0.10;82.50
75646;BME280;64237;52.438;13.240;2023-04-06T02:20:54;101650.16;;;0.07;81.97
75646;BME280;64237;52.438;13.240;2023-04-06T02:23:20;101654.69;;;0.16;82.39
75646;BME280;64237;52.438;13.240;2023-04-06T02:25:46;101645.22;;;0.20;81.73
75646;BME280;64237;52.438;13.240;2023-04-06T02:28:11;101645.69;;;0.33;81.24
75646;BME280;64237;52.438;13.240;2023-04-06T02:30:37;101649.09;;;0.17;81.51
75646;BME280;64237;52.438;13.240;2023-04-06T02:33:02;101644.09;;;0.13;81.67
75646;BME280;64237;52.438;13.240;2023-04-06T02:35:28;101645.56;;;0.07;82.01
75646;BME280;64237;52.438;13.240;2023-04-06T02:37:54;101648.50;;;-0.04;82.63
75646;BME280;64237;52.438;13.240;2023-04-06T02:40:20;101642.81;;;-0.11;83.02
75646;BME280;64237;52.438;13.240;2023-04-06T02:42:45;101649.38;;;-0.04;82.66
75646;BME280;64237;52.438;13.240;2023-04-06T02:45:10;101641.09;;;-0.12;82.85
75646;BME280;64237;52.438;13.240;2023-04-06T02:47:36;101650.41;;;0.13;81.87
75646;BME280;64237;52.438;13.240;2023-04-06T02:50:01;101654.97;;;0.13;81.64
75646;BME280;64237;52.438;13.240;2023-04-06T02:52:27;101647.34;;;-0.02;82.37
75646;BME280;64237;52.438;13.240;2023-04-06T02:54:52;101650.41;;;-0.14;82.40
75646;BME280;64237;52.438;13.240;2023-04-06T02:57:17;101647.84;;;0.12;81.92
75646;BME280;64237;52.438;13.240;2023-04-06T02:59:43;101660.94;;;-0.02;81.71
75646;BME280;64237;52.438;13.240;2023-04-06T03:02:08;101649.97;;;-0.10;81.69
75646;BME280;64237;52.438;13.240;2023-04-06T03:04:34;101656.81;;;-0.06;82.07
75646;BME280;64237;52.438;13.240;2023-04-06T03:06:59;101647.72;;;0.04;81.76
75646;BME280;64237;52.438;13.240;2023-04-06T03:09:25;101653.88;;;0.06;81.89
75646;BME280;64237;52.438;13.240;2023-04-06T03:11:50;101663.97;;;-0.05;81.66
75646;BME280;64237;52.438;13.240;2023-04-06T03:14:15;101659.72;;;-0.17;82.64
75646;BME280;64237;52.438;13.240;2023-04-06T03:16:42;101667.03;;;-0.17;82.37
75646;BME280;64237;52.438;13.240;2023-04-06T03:19:08;101654.00;;;-0.14;81.91
75646;BME280;64237;52.438;13.240;2023-04-06T03:21:33;101658.53;;;-0.32;82.56
75646;BME280;64237;52.438;13.240;2023-04-06T03:23:59;101662.56;;;-0.09;81.70
75646;BME280;64237;52.438;13.240;2023-04-06T03:26:24;101659.44;;;-0.14;82.18
75646;BME280;64237;52.438;13.240;2023-04-06T03:28:50;101666.38;;;-0.29;82.93
75646;BME280;64237;52.438;13.240;2023-04-06T03:31:15;101664.69;;;-0.40;83.01
75646;BME280;64237;52.438;13.240;2023-04-06T03:33:40;101675.00;;;-0.43;83.26
75646;BME280;64237;52.438;13.240;2023-04-06T03:36:06;101661.03;;;-0.48;83.82
75646;BME280;64237;52.438;13.240;2023-04-06T03:38:32;101665.03;;;-0.52;83.71
75646;BME280;64237;52.438;13.240;2023-04-06T03:40:57;101673.19;;;-0.52;83.79
75646;BME280;64237;52.438;13.240;2023-04-06T03:43:22;101675.78;;;-0.51;83.68
75646;BME280;64237;52.438;13.240;2023-04-06T03:45:48;101674.63;;;-0.48;83.91
75646;BME280;64237;52.438;13.240;2023-04-06T03:48:13;101669.81;;;-0.27;83.07
75646;BME280;64237;52.438;13.240;2023-04-06T03:50:38;101672.94;;;-0.22;82.93
75646;BME280;64237;52.438;13.240;2023-04-06T03:53:04;101673.22;;;-0.25;82.17
75646;BME280;64237;52.438;13.240;2023-04-06T03:55:29;101682.69;;;-0.29;82.57
75646;BME280;64237;52.438;13.240;2023-04-06T03:57:55;101685.50;;;-0.21;82.33
75646;BME280;64237;52.438;13.240;2023-04-06T04:00:20;101679.84;;;-0.37;82.63
75646;BME280;64237;52.438;13.240;2023-04-06T04:02:46;101686.72;;;-0.33;82.70
75646;BME280;64237;52.438;13.240;2023-04-06T04:05:11;101688.50;;;-0.51;83.29
75646;BME280;64237;52.438;13.240;2023-04-06T04:07:37;101687.63;;;-0.52;83.59
75646;BME280;64237;52.438;13.240;2023-04-06T04:10:02;101685.34;;;-0.47;83.18
75646;BME280;64237;52.438;13.240;2023-04-06T04:12:28;101692.16;;;-0.33;82.99
75646;BME280;64237;52.438;13.240;2023-04-06T04:14:53;101688.78;;;-0.45;83.16
75646;BME280;64237;52.438;13.240;2023-04-06T04:17:19;101687.28;;;-0.39;82.37
75646;BME280;64237;52.438;13.240;2023-04-06T04:19:45;101689.84;;;-0.28;82.22
75646;BME280;64237;52.438;13.240;2023-04-06T04:22:10;101693.84;;;-0.32;82.48
75646;BME280;64237;52.438;13.240;2023-04-06T04:24:35;101693.78;;;-0.50;82.82
75646;BME280;64237;52.438;13.240;2023-04-06T04:27:01;101696.22;;;-0.56;83.57
75646;BME280;64237;52.438;13.240;2023-04-06T04:29:26;101686.25;;;-0.65;83.73
75646;BME280;64237;52.438;13.240;2023-04-06T04:31:52;101697.66;;;-0.52;83.40
75646;BME280;64237;52.438;13.240;2023-04-06T04:34:18;101696.53;;;-0.59;83.19
75646;BME280;64237;52.438;13.240;2023-04-06T04:36:45;101687.94;;;-0.64;83.59
75646;BME280;64237;52.438;13.240;2023-04-06T04:39:11;101692.00;;;-0.68;84.06
75646;BME280;64237;52.438;13.240;2023-04-06T04:41:36;101696.72;;;-0.71;83.56
75646;BME280;64237;52.438;13.240;2023-04-06T04:44:02;101694.56;;;-0.77;84.14
75646;BME280;64237;52.438;13.240;2023-04-06T04:46:27;101693.81;;;-0.59;83.79
75646;BME280;64237;52.438;13.240;2023-04-06T04:48:52;101699.09;;;-0.58;83.40
75646;BME280;64237;52.438;13.240;2023-04-06T04:51:18;101702.25;;;-0.62;83.35
75646;BME280;64237;52.438;13.240;2023-04-06T04:53:45;101702.84;;;-0.68;84.02
75646;BME280;64237;52.438;13.240;2023-04-06T04:56:10;101705.16;;;-0.74;83.51
75646;BME280;64237;52.438;13.240;2023-04-06T04:58:35;101703.72;;;-0.68;83.99
75646;BME280;64237;52.438;13.240;2023-04-06T05:01:01;101702.56;;;-0.65;84.26
75646;BME280;64237;52.438;13.240;2023-04-06T05:03:27;101701.38;;;-0.53;83.94
75646;BME280;64237;52.438;13.240;2023-04-06T05:05:52;101702.44;;;-0.37;83.07
75646;BME280;64237;52.438;13.240;2023-04-06T05:08:18;101702.75;;;-0.40;83.24
75646;BME280;64237;52.438;13.240;2023-04-06T05:10:43;101706.47;;;-0.41;82.69
75646;BME280;64237;52.438;13.240;2023-04-06T05:13:10;101710.75;;;-0.38;83.43
75646;BME280;64237;52.438;13.240;2023-04-06T05:15:35;101702.88;;;-0.41;83.52
75646;BME280;64237;52.438;13.240;2023-04-06T05:18:03;101703.53;;;-0.20;83.76
75646;BME280;64237;52.438;13.240;2023-04-06T05:20:29;101711.28;;;-0.25;82.89
75646;BME280;64237;52.438;13.240;2023-04-06T05:22:54;101707.66;;;-0.16;82.52
75646;BME280;64237;52.438;13.240;2023-04-06T05:25:20;101702.63;;;-0.11;82.70
75646;BME280;64237;52.438;13.240;2023-04-06T05:27:45;101708.06;;;-0.11;82.70
75646;BME280;64237;52.438;13.240;2023-04-06T05:30:11;101712.94;;;-0.14;83.75
75646;BME280;64237;52.438;13.240;2023-04-06T05:32:36;101710.09;;;-0.13;83.05
75646;BME280;64237;52.438;13.240;2023-04-06T05:35:02;101718.38;;;-0.14;83.66
75646;BME280;64237;52.438;13.240;2023-04-06T05:37:27;101722.94;;;-0.05;83.55
75646;BME280;64237;52.438;13.240;2023-04-06T05:39:52;101718.06;;;-0.02;83.58
75646;BME280;64237;52.438;13.240;2023-04-06T05:42:18;101714.72;;;0.05;83.40
75646;BME280;64237;52.438;13.240;2023-04-06T05:44:43;101723.69;;;0.15;83.59
75646;BME280;64237;52.438;13.240;2023-04-06T05:47:08;101724.78;;;0.22;82.93
75646;BME280;64237;52.438;13.240;2023-04-06T05:49:34;101723.28;;;0.37;83.30
75646;BME280;64237;52.438;13.240;2023-04-06T05:52:00;101731.63;;;0.53;82.53
75646;BME280;64237;52.438;13.240;2023-04-06T05:54:26;101726.72;;;0.75;82.03
75646;BME280;64237;52.438;13.240;2023-04-06T05:56:51;101725.09;;;0.82;82.08
75646;BME280;64237;52.438;13.240;2023-04-06T05:59:17;101723.53;;;0.97;80.74
75646;BME280;64237;52.438;13.240;2023-04-06T06:01:42;101719.19;;;1.04;80.87
75646;BME280;64237;52.438;13.240;2023-04-06T06:04:07;101725.75;;;1.19;80.10
75646;BME280;64237;52.438;13.240;2023-04-06T06:06:33;101720.44;;;1.35;80.35
75646;BME280;64237;52.438;13.240;2023-04-06T06:08:58;101720.88;;;1.49;80.25
75646;BME280;64237;52.438;13.240;2023-04-06T06:11:28;101723.38;;;1.68;78.75
75646;BME280;64237;52.438;13.240;2023-04-06T06:13:54;101723.41;;;1.76;77.88
75646;BME280;64237;52.438;13.240;2023-04-06T06:16:20;101723.53;;;1.92;77.23
75646;BME280;64237;52.438;13.240;2023-04-06T06:18:45;101721.88;;;2.08;76.17
75646;BME280;64237;52.438;13.240;2023-04-06T06:21:11;101723.66;;;2.25;75.03
75646;BME280;64237;52.438;13.240;2023-04-06T06:23:37;101717.22;;;2.34;74.57
75646;BME280;64237;52.438;13.240;2023-04-06T06:26:03;101726.78;;;2.46;74.75
75646;BME280;64237;52.438;13.240;2023-04-06T06:28:29;101718.44;;;2.48;73.26
75646;BME280;64237;52.438;13.240;2023-04-06T06:30:55;101726.50;;;2.65;74.01
75646;BME280;64237;52.438;13.240;2023-04-06T06:33:20;101721.06;;;2.82;73.94
75646;BME280;64237;52.438;13.240;2023-04-06T06:35:45;101725.84;;;2.88;72.70
75646;BME280;64237;52.438;13.240;2023-04-06T06:38:11;101725.00;;;3.03;70.84
75646;BME280;64237;52.438;13.240;2023-04-06T06:40:36;101726.22;;;3.09;70.92
75646;BME280;64237;52.438;13.240;2023-04-06T06:43:02;101723.81;;;3.06;69.89
75646;BME280;64237;52.438;13.240;2023-04-06T06:45:27;101727.75;;;3.12;72.05
75646;BME280;64237;52.438;13.240;2023-04-06T06:47:54;101732.53;;;3.26;70.18
75646;BME280;64237;52.438;13.240;2023-04-06T06:50:19;101726.72;;;3.45;69.91
75646;BME280;64237;52.438;13.240;2023-04-06T06:52:45;101732.00;;;3.55;69.37
75646;BME280;64237;52.438;13.240;2023-04-06T06:55:10;101727.03;;;3.66;69.22
75646;BME280;64237;52.438;13.240;2023-04-06T06:57:36;101727.34;;;3.79;67.37
75646;BME280;64237;52.438;13.240;2023-04-06T07:00:02;101729.56;;;3.84;67.45
75646;BME280;64237;52.438;13.240;2023-04-06T07:02:30;101730.53;;;3.99;67.95
75646;BME280;64237;52.438;13.240;2023-04-06T07:04:55;101731.38;;;4.47;65.49
75646;BME280;64237;52.438;13.240;2023-04-06T07:07:21;101723.22;;;4.62;64.21
75646;BME280;64237;52.438;13.240;2023-04-06T07:09:46;101720.31;;;4.63;63.49
75646;BME280;64237;52.438;13.240;2023-04-06T07:12:12;101727.13;;;4.67;62.86
75646;BME280;64237;52.438;13.240;2023-04-06T07:14:37;101733.63;;;4.74;62.91
75646;BME280;64237;52.438;13.240;2023-04-06T07:17:02;101722.66;;;4.74;62.21
75646;BME280;64237;52.438;13.240;2023-04-06T07:19:28;101727.03;;;4.83;62.71
75646;BME280;64237;52.438;13.240;2023-04-06T07:21:53;101735.81;;;5.02;61.71
75646;BME280;64237;52.438;13.240;2023-04-06T07:24:19;101735.44;;;5.05;61.30
75646;BME280;64237;52.438;13.240;2023-04-06T07:26:44;101731.78;;;5.12;60.91
75646;BME280;64237;52.438;13.240;2023-04-06T07:29:10;101731.66;;;5.29;59.16
75646;BME280;64237;52.438;13.240;2023-04-06T07:31:35;101731.50;;;5.45;59.09
75646;BME280;64237;52.438;13.240;2023-04-06T07:34:01;101724.72;;;5.56;59.16
75646;BME280;64237;52.438;13.240;2023-04-06T07:36:26;101732.13;;;5.70;58.42
75646;BME280;64237;52.438;13.240;2023-04-06T07:38:52;101720.31;;;5.84;57.60
75646;BME280;64237;52.438;13.240;2023-04-06T07:41:17;101713.50;;;5.80;58.56
75646;BME280;64237;52.438;13.240;2023-04-06T07:43:43;101723.28;;;5.97;58.74
75646;BME280;64237;52.438;13.240;2023-04-06T07:46:08;101721.09;;;6.07;56.65
75646;BME280;64237;52.438;13.240;2023-04-06T07:48:33;101719.59;;;6.19;57.16
75646;BME280;64237;52.438;13.240;2023-04-06T07:51:03;101719.56;;;6.34;58.56
75646;BME280;64237;52.438;13.240;2023-04-06T07:53:29;101727.41;;;6.52;57.80
75646;BME280;64237;52.438;13.240;2023-04-06T07:55:54;101724.81;;;6.65;57.64
75646;BME280;64237;52.438;13.240;2023-04-06T07:58:20;101719.38;;;6.72;54.64
75646;BME280;64237;52.438;13.240;2023-04-06T08:00:49;101716.06;;;6.76;54.30
75646;BME280;64237;52.438;13.240;2023-04-06T08:03:21;101717.75;;;6.77;54.82
75646;BME280;64237;52.438;13.240;2023-04-06T08:05:50;101713.56;;;6.81;56.90
75646;BME280;64237;52.438;13.240;2023-04-06T08:08:15;101723.16;;;7.07;54.01
75646;BME280;64237;52.438;13.240;2023-04-06T08:10:48;101721.13;;;7.15;54.49
75646;BME280;64237;52.438;13.240;2023-04-06T08:13:14;101722.44;;;7.19;53.34
75646;BME280;64237;52.438;13.240;2023-04-06T08:15:45;101727.88;;;7.34;53.90
75646;BME280;64237;52.438;13.240;2023-04-06T08:18:17;101728.13;;;7.39;52.84
75646;BME280;64237;52.438;13.240;2023-04-06T08:20:46;101722.22;;;7.42;50.92
75646;BME280;64237;52.438;13.240;2023-04-06T08:23:11;101725.94;;;7.56;51.63
75646;BME280;64237;52.438;13.240;2023-04-06T08:25:37;101728.66;;;7.77;53.09
75646;BME280;64237;52.438;13.240;2023-04-06T08:28:03;101720.78;;;7.74;53.02
75646;BME280;64237;52.438;13.240;2023-04-06T08:30:31;101724.47;;;7.88;51.16
75646;BME280;64237;52.438;13.240;2023-04-06T08:33:06;101723.44;;;7.89;47.30
75646;BME280;64237;52.438;13.240;2023-04-06T08:35:34;101726.63;;;7.93;48.88
75646;BME280;64237;52.438;13.240;2023-04-06T08:38:03;101723.19;;;8.18;48.32
75646;BME280;64237;52.438;13.240;2023-04-06T08:40:28;101716.84;;;8.24;46.47
75646;BME280;64237;52.438;13.240;2023-04-06T08:42:59;101712.75;;;8.42;47.70
75646;BME280;64237;52.438;13.240;2023-04-06T08:45:27;101723.78;;;8.42;47.13
75646;BME280;64237;52.438;13.240;2023-04-06T08:47:57;101712.31;;;8.45;45.29
75646;BME280;64237;52.438;13.240;2023-04-06T08:50:24;101722.09;;;8.47;45.91
75646;BME280;64237;52.438;13.240;2023-04-06T08:52:49;101730.63;;;8.59;45.67
75646;BME280;64237;52.438;13.240;2023-04-06T08:55:21;101720.38;;;8.46;44.90
75646;BME280;64237;52.438;13.240;2023-04-06T08:57:47;101720.69;;;8.71;47.96
75646;BME280;64237;52.438;13.240;2023-04-06T09:00:16;101721.81;;;8.90;43.09
75646;BME280;64237;52.438;13.240;2023-04-06T09:02:45;101718.84;;;8.91;42.89
75646;BME280;64237;52.438;13.240;2023-04-06T09:05:10;101705.25;;;8.90;41.62
75646;BME280;64237;52.438;13.240;2023-04-06T09:07:39;101718.88;;;9.11;40.39
75646;BME280;64237;52.438;13.240;2023-04-06T09:10:05;101717.59;;;9.14;40.23
75646;BME280;64237;52.438;13.240;2023-04-06T09:12:43;101720.19;;;9.35;41.13
75646;BME280;64237;52.438;13.240;2023-04-06T09:15:27;101710.41;;;9.39;41.85
75646;BME280;64237;52.438;13.240;2023-04-06T09:17:56;101711.69;;;9.43;39.36
75646;BME280;64237;52.438;13.240;2023-04-06T09:20:25;101704.06;;;9.72;39.77
75646;BME280;64237;52.438;13.240;2023-04-06T09:22:55;101694.69;;;9.66;40.89
75646;BME280;64237;52.438;13.240;2023-04-06T09:25:22;101705.28;;;9.76;38.63
75646;BME280;64237;52.438;13.240;2023-04-06T09:28:07;101695.94;;;9.90;37.28
75646;BME280;64237;52.438;13.240;2023-04-06T09:30:49;101688.03;;;10.00;36.19
75646;BME280;64237;52.438;13.240;2023-04-06T09:33:23;101686.97;;;10.01;36.26
75646;BME280;64237;52.438;13.240;2023-04-06T09:35:49;101687.16;;;10.13;38.65
75646;BME280;64237;52.438;13.240;2023-04-06T09:38:15;101695.03;;;10.09;38.19
75646;BME280;64237;52.438;13.240;2023-04-06T09:40:50;101690.97;;;10.18;39.15
75646;BME280;64237;52.438;13.240;2023-04-06T09:43:26;101686.69;;;10.36;38.30
75646;BME280;64237;52.438;13.240;2023-04-06T09:46:00;101682.38;;;10.53;36.85
75646;BME280;64237;52.438;13.240;2023-04-06T09:48:27;101682.66;;;10.32;36.47
75646;BME280;64237;52.438;13.240;2023-04-06T09:51:03;101682.94;;;10.61;35.49
75646;BME280;64237;52.438;13.240;2023-04-06T09:53:50;101684.47;;;10.95;38.57
75646;BME280;64237;52.438;13.240;2023-04-06T09:56:23;101676.72;;;10.73;35.94
75646;BME280;64237;52.438;13.240;2023-04-06T09:58:57;101671.50;;;10.51;35.50
75646;BME280;64237;52.438;13.240;2023-04-06T10:01:28;101673.25;;;10.84;36.04
75646;BME280;64237;52.438;13.240;2023-04-06T10:06:39;101673.69;;;11.12;33.42
75646;BME280;64237;52.438;13.240;2023-04-06T10:09:12;101667.97;;;11.07;30.47
75646;BME280;64237;52.438;13.240;2023-04-06T10:11:39;101670.38;;;11.53;32.60
75646;BME280;64237;52.438;13.240;2023-04-06T10:14:05;101671.75;;;11.44;30.42
75646;BME280;64237;52.438;13.240;2023-04-06T10:16:30;101675.69;;;11.30;30.30
75646;BME280;64237;52.438;13.240;2023-04-06T10:19:06;101666.53;;;11.54;29.47
75646;BME280;64237;52.438;13.240;2023-04-06T10:21:35;101663.72;;;11.36;29.48
75646;BME280;64237;52.438;13.240;2023-04-06T10:24:07;101664.50;;;11.43;31.39
75646;BME280;64237;52.438;13.240;2023-04-06T10:26:38;101663.53;;;11.81;32.83
75646;BME280;64237;52.438;13.240;2023-04-06T10:29:13;101667.34;;;12.05;32.15
75646;BME280;64237;52.438;13.240;2023-04-06T10:31:41;101657.72;;;11.89;33.04
75646;BME280;64237;52.438;13.240;2023-04-06T10:34:11;101660.72;;;12.24;31.57
75646;BME280;64237;52.438;13.240;2023-04-06T10:36:39;101656.72;;;12.68;29.75
75646;BME280;64237;52.438;13.240;2023-04-06T10:39:14;101658.97;;;12.89;30.12
75646;BME280;64237;52.438;13.240;2023-04-06T10:41:43;101665.63;;;13.00;27.22
75646;BME280;64237;52.438;13.240;2023-04-06T10:44:28;101659.19;;;12.76;27.22
75646;BME280;64237;52.438;13.240;2023-04-06T10:46:59;101667.00;;;12.97;26.67
75646;BME280;64237;52.438;13.240;2023-04-06T10:49:27;101668.31;;;12.47;28.36
75646;BME280;64237;52.438;13.240;2023-04-06T10:51:54;101656.44;;;12.88;27.84
75646;BME280;64237;52.438;13.240;2023-04-06T10:54:26;101666.94;;;12.86;26.34
75646;BME280;64237;52.438;13.240;2023-04-06T10:56:52;101663.34;;;12.67;24.61
75646;BME280;64237;52.438;13.240;2023-04-06T10:59:21;101657.03;;;12.60;26.36
75646;BME280;64237;52.438;13.240;2023-04-06T11:01:50;101647.88;;;12.89;26.03
75646;BME280;64237;52.438;13.240;2023-04-06T11:04:20;101650.88;;;12.88;25.54
75646;BME280;64237;52.438;13.240;2023-04-06T11:06:47;101644.41;;;13.05;27.42
75646;BME280;64237;52.438;13.240;2023-04-06T11:09:26;101641.97;;;13.39;28.15
75646;BME280;64237;52.438;13.240;2023-04-06T11:11:58;101640.22;;;12.73;25.78
75646;BME280;64237;52.438;13.240;2023-04-06T11:14:26;101639.25;;;13.21;26.93
75646;BME280;64237;52.438;13.240;2023-04-06T11:16:58;101635.19;;;13.35;23.93
75646;BME280;64237;52.438;13.240;2023-04-06T11:19:24;101630.50;;;13.05;26.17
75646;BME280;64237;52.438;13.240;2023-04-06T11:21:49;101635.06;;;13.18;24.74
75646;BME280;64237;52.438;13.240;2023-04-06T11:24:22;101634.72;;;13.38;24.01
75646;BME280;64237;52.438;13.240;2023-04-06T11:27:06;101626.84;;;13.47;24.83
75646;BME280;64237;52.438;13.240;2023-04-06T11:29:44;101627.72;;;13.47;26.31
75646;BME280;64237;52.438;13.240;2023-04-06T11:32:25;101627.94;;;14.04;26.62
75646;BME280;64237;52.438;13.240;2023-04-06T11:34:57;101631.25;;;14.29;25.93
75646;BME280;64237;52.438;13.240;2023-04-06T11:37:26;101623.97;;;13.42;23.77
75646;BME280;64237;52.438;13.240;2023-04-06T11:40:00;101609.94;;;13.83;26.02
75646;BME280;64237;52.438;13.240;2023-04-06T11:42:28;101609.97;;;14.23;25.65
75646;BME280;64237;52.438;13.240;2023-04-06T11:44:58;101613.69;;;13.77;24.56
75646;BME280;64237;52.438;13.240;2023-04-06T11:50:32;101610.03;;;14.00;26.13
75646;BME280;64237;52.438;13.240;2023-04-06T11:52:59;101610.16;;;13.93;24.61
75646;BME280;64237;52.438;13.240;2023-04-06T11:55:29;101612.13;;;14.45;25.12
75646;BME280;64237;52.438;13.240;2023-04-06T11:58:00;101608.00;;;14.35;25.43
75646;BME280;64237;52.438;13.240;2023-04-06T12:00:26;101609.31;;;14.33;26.76
75646;BME280;64237;52.438;13.240;2023-04-06T12:02:57;101602.97;;;14.61;26.39
75646;BME280;64237;52.438;13.240;2023-04-06T12:05:24;101599.19;;;14.67;26.02
75646;BME280;64237;52.438;13.240;2023-04-06T12:07:56;101595.84;;;14.98;25.63
75646;BME280;64237;52.438;13.240;2023-04-06T12:10:25;101600.28;;;15.11;24.51
75646;BME280;64237;52.438;13.240;2023-04-06T12:12:57;101597.22;;;15.29;25.22
75646;BME280;64237;52.438;13.240;2023-04-06T12:15:28;101600.09;;;15.01;24.99
75646;BME280;64237;52.438;13.240;2023-04-06T12:17:57;101588.22;;;14.77;25.04
75646;BME280;64237;52.438;13.240;2023-04-06T12:20:29;101591.59;;;14.79;25.69
75646;BME280;64237;52.438;13.240;2023-04-06T12:22:54;101587.50;;;14.98;25.50
75646;BME280;64237;52.438;13.240;2023-04-06T12:25:23;101593.31;;;15.47;25.43
75646;BME280;64237;52.438;13.240;2023-04-06T12:27:51;101589.81;;;15.35;25.22
75646;BME280;64237;52.438;13.240;2023-04-06T12:30:20;101584.53;;;15.55;26.37
75646;BME280;64237;52.438;13.240;2023-04-06T12:33:01;101594.13;;;14.64;26.62
75646;BME280;64237;52.438;13.240;2023-04-06T12:35:26;101580.81;;;15.50;26.06
75646;BME280;64237;52.438;13.240;2023-04-06T12:37:52;101584.03;;;15.75;23.98
75646;BME280;64237;52.438;13.240;2023-04-06T12:40:26;101572.72;;;15.48;24.06
75646;BME280;64237;52.438;13.240;2023-04-06T12:42:54;101581.94;;;15.32;23.54
75646;BME280;64237;52.438;13.240;2023-04-06T12:45:20;101580.66;;;14.89;24.26
75646;BME280;64237;52.438;13.240;2023-04-06T12:47:51;101575.56;;;14.69;24.32
75646;BME280;64237;52.438;13.240;2023-04-06T12:50:17;101582.28;;;14.17;25.67